createdAt,value
2023-03-29T00:00:29.728Z,2.92
2023-03-29T00:02:57.548Z,2.38
2023-03-29T00:05:25.518Z,2.65
2023-03-29T00:07:54.382Z,2.55
2023-03-29T00:10:24.158Z,2.70
2023-03-29T00:12:52.706Z,2.83
2023-03-29T00:15:20.544Z,3.00
2023-03-29T00:17:47.646Z,2.40
2023-03-29T00:20:14.894Z,2.10
2023-03-29T00:22:42.874Z,2.97
2023-03-29T00:25:11.508Z,2.53
2023-03-29T00:27:38.834Z,3.10
2023-03-29T00:30:08.281Z,3.00
2023-03-29T00:32:35.418Z,1.73
2023-03-29T00:35:02.459Z,3.45
2023-03-29T00:37:32.406Z,2.30
2023-03-29T00:39:59.700Z,3.35
2023-03-29T00:42:26.869Z,3.13
2023-03-29T00:45:12.376Z,3.20
2023-03-29T00:47:48.044Z,2.17
2023-03-29T00:50:29.756Z,3.33
2023-03-29T00:53:12.517Z,3.25
2023-03-29T00:55:49.707Z,2.35
2023-03-29T00:58:24.652Z,2.10
2023-03-29T01:00:57.992Z,3.33
2023-03-29T01:03:33.013Z,2.08
2023-03-29T01:06:05.028Z,3.30
2023-03-29T01:08:45.566Z,3.60
2023-03-29T01:11:22.360Z,2.40
2023-03-29T01:14:00.728Z,3.33
2023-03-29T01:16:30.447Z,2.53
2023-03-29T01:19:00.502Z,3.25
2023-03-29T01:21:37.968Z,3.53
2023-03-29T01:24:07.868Z,2.55
2023-03-29T01:26:46.882Z,3.97
2023-03-29T01:29:28.576Z,2.10
2023-03-29T01:32:09.040Z,3.95
2023-03-29T01:34:48.857Z,3.67
2023-03-29T01:37:28.669Z,3.90
2023-03-29T01:39:55.858Z,2.60
2023-03-29T01:42:29.524Z,4.30
2023-03-29T01:45:09.875Z,2.50
2023-03-29T01:48:14.801Z,3.53
2023-03-29T01:53:47.071Z,2.45
2023-03-29T01:56:18.664Z,4.80
2023-03-29T01:58:48.138Z,2.42
2023-03-29T02:01:21.547Z,4.43
2023-03-29T02:03:54.681Z,4.35
2023-03-29T02:06:25.029Z,2.95
2023-03-29T02:08:55.776Z,4.22
2023-03-29T02:11:25.980Z,2.55
2023-03-29T02:13:54.217Z,2.67
2023-03-29T02:16:21.374Z,2.60
2023-03-29T02:18:50.488Z,4.05
2023-03-29T02:21:33.846Z,2.40
2023-03-29T02:24:06.507Z,2.58
2023-03-29T02:26:34.158Z,2.72
2023-03-29T02:29:01.571Z,4.18
2023-03-29T02:31:41.047Z,4.00
2023-03-29T02:34:14.022Z,4.50
2023-03-29T02:36:46.766Z,2.78
2023-03-29T02:39:15.922Z,3.60
2023-03-29T02:41:45.551Z,4.20
2023-03-29T02:44:17.566Z,3.05
2023-03-29T02:46:46.172Z,2.90
2023-03-29T02:49:13.336Z,3.88
2023-03-29T02:51:40.903Z,2.33
2023-03-29T02:54:16.254Z,2.28
2023-03-29T02:56:48.384Z,4.22
2023-03-29T02:59:17.715Z,3.03
2023-03-29T03:01:45.085Z,4.50
2023-03-29T03:04:13.472Z,2.83
2023-03-29T03:06:41.346Z,3.35
2023-03-29T03:09:10.582Z,4.18
2023-03-29T03:11:41.042Z,2.67
2023-03-29T03:14:08.294Z,4.65
2023-03-29T03:16:36.376Z,2.60
2023-03-29T03:19:04.020Z,4.55
2023-03-29T03:21:31.040Z,3.03
2023-03-29T03:23:59.885Z,4.28
2023-03-29T03:26:30.075Z,2.80
2023-03-29T03:28:57.541Z,4.05
2023-03-29T03:31:59.301Z,2.75
2023-03-29T03:34:44.802Z,3.08
2023-03-29T03:37:12.264Z,3.95
2023-03-29T03:39:39.482Z,2.63
2023-03-29T03:42:08.832Z,4.20
2023-03-29T03:44:41.322Z,2.97
2023-03-29T03:47:41.104Z,2.97
2023-03-29T03:50:24.491Z,4.30
2023-03-29T03:52:52.098Z,2.47
2023-03-29T03:55:19.859Z,2.67
2023-03-29T03:58:09.261Z,4.13
2023-03-29T04:00:36.370Z,2.58
2023-03-29T04:03:24.205Z,2.58
2023-03-29T04:05:51.562Z,4.07
2023-03-29T04:08:22.534Z,3.17
2023-03-29T04:11:11.604Z,2.75
2023-03-29T04:13:41.722Z,4.90
2023-03-29T04:16:42.446Z,3.47
2023-03-29T04:19:35.057Z,3.10
2023-03-29T04:22:02.333Z,4.80
2023-03-29T04:24:29.340Z,3.42
2023-03-29T04:27:22.417Z,5.10
2023-03-29T04:29:49.444Z,4.60
2023-03-29T04:32:27.397Z,2.88
2023-03-29T04:35:05.167Z,4.72
2023-03-29T04:37:32.925Z,2.67
2023-03-29T04:40:08.749Z,3.42
2023-03-29T04:42:49.644Z,3.42
2023-03-29T04:45:19.834Z,3.95
2023-03-29T04:48:05.827Z,4.90
2023-03-29T04:50:34.774Z,3.05
2023-03-29T04:53:02.417Z,4.15
2023-03-29T04:55:29.671Z,3.05
2023-03-29T04:58:03.310Z,4.10
2023-03-29T05:00:33.560Z,4.63
2023-03-29T05:03:19.784Z,3.03
2023-03-29T05:05:54.273Z,3.30
2023-03-29T05:08:21.721Z,4.40
2023-03-29T05:11:10.885Z,2.72
2023-03-29T05:13:38.518Z,5.03
2023-03-29T05:16:07.684Z,3.67
2023-03-29T05:18:35.736Z,3.35
2023-03-29T05:21:04.560Z,4.50
2023-03-29T05:23:34.382Z,4.68
2023-03-29T05:28:39.506Z,2.65
2023-03-29T05:31:08.134Z,3.92
2023-03-29T05:33:37.826Z,4.53
2023-03-29T05:36:08.988Z,3.17
2023-03-29T05:38:46.820Z,5.15
2023-03-29T05:41:15.993Z,4.93
2023-03-29T05:44:06.392Z,4.85
2023-03-29T05:46:33.773Z,2.90
2023-03-29T05:49:03.174Z,5.20
2023-03-29T05:51:57.186Z,3.08
2023-03-29T05:54:26.385Z,5.50
2023-03-29T05:56:53.459Z,3.63
2023-03-29T05:59:21.084Z,3.80
2023-03-29T06:01:49.589Z,4.70
2023-03-29T06:04:20.870Z,4.90
2023-03-29T06:07:12.576Z,4.95
2023-03-29T06:09:42.292Z,5.38
2023-03-29T06:12:09.551Z,4.05
2023-03-29T06:14:40.251Z,5.05
2023-03-29T06:17:19.507Z,3.40
2023-03-29T06:19:47.681Z,5.38
2023-03-29T06:22:15.731Z,5.13
2023-03-29T06:24:42.844Z,3.90
2023-03-29T06:27:20.368Z,4.78
2023-03-29T06:29:48.326Z,5.43
2023-03-29T06:32:16.029Z,5.10
2023-03-29T06:35:00.810Z,5.30
2023-03-29T06:37:33.842Z,5.40
2023-03-29T06:40:33.601Z,4.70
2023-03-29T06:43:00.881Z,4.95
2023-03-29T06:45:54.965Z,3.72
2023-03-29T06:48:39.573Z,5.10
2023-03-29T06:51:07.772Z,3.63
2023-03-29T06:53:35.501Z,5.43
2023-03-29T06:56:09.319Z,4.97
2023-03-29T06:58:41.437Z,3.53
2023-03-29T07:01:31.298Z,5.30
2023-03-29T07:04:08.171Z,5.38
2023-03-29T07:07:01.581Z,5.07
2023-03-29T07:09:32.195Z,5.47
2023-03-29T07:12:17.932Z,5.80
2023-03-29T07:14:46.630Z,5.13
2023-03-29T07:17:14.935Z,5.18
2023-03-29T07:19:42.404Z,5.68
2023-03-29T07:22:35.179Z,4.88
2023-03-29T07:25:02.266Z,5.07
2023-03-29T07:27:29.917Z,5.22
2023-03-29T07:29:58.219Z,4.95
2023-03-29T07:32:25.562Z,5.65
2023-03-29T07:35:01.025Z,5.03
2023-03-29T07:37:37.516Z,5.47
2023-03-29T07:40:11.275Z,5.07
2023-03-29T07:43:02.980Z,4.97
2023-03-29T07:45:32.684Z,4.85
2023-03-29T07:48:04.022Z,5.05
2023-03-29T07:50:46.827Z,5.38
2023-03-29T07:53:14.439Z,5.32
2023-03-29T07:55:47.648Z,4.53
2023-03-29T07:58:33.651Z,4.90
2023-03-29T08:01:01.336Z,5.03
2023-03-29T08:03:47.385Z,4.97
2023-03-29T08:06:16.230Z,4.97
2023-03-29T08:08:43.475Z,4.70
2023-03-29T08:11:15.353Z,4.93
2023-03-29T08:13:59.090Z,4.78
2023-03-29T08:16:26.869Z,4.68
2023-03-29T08:19:05.315Z,4.53
2023-03-29T08:24:20.428Z,4.95
2023-03-29T08:26:51.606Z,4.30
2023-03-29T08:29:20.234Z,4.57
2023-03-29T08:31:47.255Z,5.15
2023-03-29T08:34:14.489Z,4.40
2023-03-29T08:37:04.856Z,4.38
2023-03-29T08:39:40.583Z,4.38
2023-03-29T08:42:52.362Z,4.70
2023-03-29T08:45:38.082Z,4.32
2023-03-29T08:48:28.598Z,4.40
2023-03-29T08:51:15.480Z,4.18
2023-03-29T08:53:47.048Z,4.63
2023-03-29T08:56:25.085Z,4.40
2023-03-29T08:59:25.882Z,5.13
2023-03-29T09:01:55.996Z,5.40
2023-03-29T09:04:33.111Z,4.60
2023-03-29T09:07:12.841Z,4.68
2023-03-29T09:09:44.050Z,4.22
2023-03-29T09:12:36.736Z,3.47
2023-03-29T09:15:16.383Z,3.65
2023-03-29T09:17:58.490Z,3.58
2023-03-29T09:20:46.075Z,3.47
2023-03-29T09:23:13.666Z,3.50
2023-03-29T09:26:00.857Z,3.38
2023-03-29T09:29:07.061Z,3.20
2023-03-29T09:31:42.448Z,3.38
2023-03-29T09:34:28.942Z,3.67
2023-03-29T09:37:07.989Z,3.70
2023-03-29T09:39:38.288Z,3.72
2023-03-29T09:42:12.039Z,3.88
2023-03-29T09:44:47.858Z,4.00
2023-03-29T09:47:28.261Z,3.65
2023-03-29T09:50:02.610Z,3.95
2023-03-29T09:52:29.770Z,3.67
2023-03-29T09:55:06.800Z,4.30
2023-03-29T09:57:53.720Z,3.60
2023-03-29T10:00:21.095Z,4.10
2023-03-29T10:02:57.140Z,3.60
2023-03-29T10:05:37.298Z,4.20
2023-03-29T10:08:31.008Z,3.55
2023-03-29T10:11:03.741Z,4.13
2023-03-29T10:13:37.088Z,3.80
2023-03-29T10:16:07.714Z,4.27
2023-03-29T10:18:41.591Z,4.22
2023-03-29T10:21:13.312Z,4.32
2023-03-29T10:23:40.310Z,4.25
2023-03-29T10:26:16.751Z,4.30
2023-03-29T10:28:44.810Z,3.85
2023-03-29T10:31:19.433Z,4.47
2023-03-29T10:33:56.143Z,4.30
2023-03-29T10:36:26.664Z,4.40
2023-03-29T10:38:57.498Z,4.57
2023-03-29T10:41:27.250Z,4.43
2023-03-29T10:43:54.818Z,4.45
2023-03-29T10:46:23.334Z,4.50
2023-03-29T10:48:55.566Z,4.25
2023-03-29T10:51:24.062Z,4.00
2023-03-29T10:53:51.170Z,4.75
2023-03-29T10:56:28.048Z,4.15
2023-03-29T10:59:16.627Z,4.32
2023-03-29T11:02:26.963Z,4.45
2023-03-29T11:05:00.312Z,4.40
2023-03-29T11:07:33.508Z,4.68
2023-03-29T11:10:03.668Z,4.72
2023-03-29T11:13:08.969Z,4.88
2023-03-29T11:15:50.765Z,4.72
2023-03-29T11:18:40.412Z,4.78
2023-03-29T11:21:17.850Z,4.40
2023-03-29T11:23:50.397Z,3.70
2023-03-29T11:26:24.803Z,3.75
2023-03-29T11:29:09.404Z,4.00
2023-03-29T11:31:58.790Z,3.70
2023-03-29T11:34:44.944Z,3.00
2023-03-29T11:37:23.659Z,3.47
2023-03-29T11:40:09.312Z,3.90
2023-03-29T11:42:41.192Z,3.75
2023-03-29T11:45:16.024Z,3.75
2023-03-29T11:47:45.119Z,4.00
2023-03-29T11:50:20.349Z,3.53
2023-03-29T11:52:57.558Z,3.95
2023-03-29T11:55:31.808Z,5.40
2023-03-29T11:58:04.675Z,4.07
2023-03-29T12:00:42.624Z,4.28
2023-03-29T12:03:24.672Z,4.85
2023-03-29T12:05:59.438Z,4.93
2023-03-29T12:08:35.301Z,4.47
2023-03-29T12:11:27.442Z,4.68
2023-03-29T12:14:04.659Z,4.80
2023-03-29T12:16:54.017Z,5.72
2023-03-29T12:19:28.978Z,5.90
2023-03-29T12:21:58.059Z,6.43
2023-03-29T12:24:29.776Z,5.80
2023-03-29T12:27:40.230Z,5.75
2023-03-29T12:30:38.454Z,5.32
2023-03-29T12:33:15.934Z,5.07
2023-03-29T12:36:18.348Z,4.85
2023-03-29T12:39:04.636Z,5.00
2023-03-29T12:41:52.031Z,4.07
2023-03-29T12:44:37.859Z,3.70
2023-03-29T12:47:33.749Z,3.80
2023-03-29T12:50:01.780Z,3.85
2023-03-29T12:52:36.708Z,3.67
2023-03-29T12:55:22.094Z,4.05
2023-03-29T12:58:08.388Z,3.92
2023-03-29T13:00:44.387Z,4.45
2023-03-29T13:03:40.790Z,4.70
2023-03-29T13:06:10.890Z,4.80
2023-03-29T13:08:44.087Z,4.63
2023-03-29T13:11:47.793Z,4.60
2023-03-29T13:14:20.229Z,5.22
2023-03-29T13:16:48.000Z,4.53
2023-03-29T13:19:45.098Z,4.70
2023-03-29T13:22:34.232Z,4.38
2023-03-29T13:25:06.792Z,5.43
2023-03-29T13:27:54.070Z,5.25
2023-03-29T13:30:45.347Z,5.07
2023-03-29T13:33:27.827Z,4.82
2023-03-29T13:36:33.090Z,4.80
2023-03-29T13:39:05.812Z,5.13
2023-03-29T13:41:38.769Z,4.25
2023-03-29T13:44:29.847Z,4.65
2023-03-29T13:47:26.484Z,3.75
2023-03-29T13:49:58.971Z,4.25
2023-03-29T13:52:38.834Z,4.13
2023-03-29T13:55:33.640Z,3.80
2023-03-29T13:58:27.480Z,3.75
2023-03-29T14:01:29.659Z,3.17
2023-03-29T14:03:57.593Z,3.67
2023-03-29T14:06:36.768Z,3.83
2023-03-29T14:09:09.023Z,3.78
2023-03-29T14:11:36.634Z,3.70
2023-03-29T14:14:07.421Z,3.55
2023-03-29T14:16:40.204Z,3.70
2023-03-29T14:19:35.403Z,3.95
2023-03-29T14:22:07.483Z,2.92
2023-03-29T14:24:40.505Z,2.78
2023-03-29T14:27:11.687Z,3.03
2023-03-29T14:29:38.670Z,3.20
2023-03-29T14:32:19.119Z,2.97
2023-03-29T14:34:50.433Z,3.17
2023-03-29T14:37:26.474Z,2.78
2023-03-29T14:39:53.818Z,2.90
2023-03-29T14:42:26.840Z,2.80
2023-03-29T14:45:06.068Z,2.40
2023-03-29T14:47:34.170Z,2.45
2023-03-29T14:50:01.753Z,2.83
2023-03-29T14:52:30.820Z,3.03
2023-03-29T14:55:01.054Z,3.03
2023-03-29T14:57:32.970Z,3.25
2023-03-29T15:00:05.209Z,2.58
2023-03-29T15:02:33.836Z,2.70
2023-03-29T15:05:04.778Z,2.65
2023-03-29T15:07:36.914Z,2.45
2023-03-29T15:10:06.515Z,2.10
2023-03-29T15:12:34.340Z,2.60
2023-03-29T15:15:02.659Z,2.65
2023-03-29T15:17:50.202Z,2.20
2023-03-29T15:20:31.648Z,2.50
2023-03-29T15:23:07.692Z,2.58
2023-03-29T15:25:46.032Z,2.15
2023-03-29T15:28:28.352Z,2.80
2023-03-29T15:31:07.731Z,2.50
2023-03-29T15:33:40.452Z,2.60
2023-03-29T15:36:10.277Z,2.17
2023-03-29T15:38:44.092Z,2.10
2023-03-29T15:41:14.337Z,2.70
2023-03-29T15:43:42.370Z,2.72
2023-03-29T15:46:12.136Z,2.90
2023-03-29T15:48:39.583Z,3.15
2023-03-29T15:51:07.597Z,3.53
2023-03-29T15:53:35.950Z,3.22
2023-03-29T15:56:07.275Z,3.90
2023-03-29T15:58:35.573Z,3.15
2023-03-29T16:01:23.814Z,2.97
2023-03-29T16:03:51.068Z,3.33
2023-03-29T16:06:18.474Z,3.40
2023-03-29T16:08:46.188Z,3.10
2023-03-29T16:11:13.313Z,3.40
2023-03-29T16:13:40.424Z,3.35
2023-03-29T16:16:09.639Z,2.80
2023-03-29T16:18:37.433Z,3.28
2023-03-29T16:21:04.820Z,3.00
2023-03-29T16:23:32.340Z,3.20
2023-03-29T16:25:59.559Z,3.05
2023-03-29T16:28:26.593Z,3.45
2023-03-29T16:30:53.551Z,3.70
2023-03-29T16:33:20.816Z,4.07
2023-03-29T16:35:47.833Z,3.17
2023-03-29T16:38:14.933Z,3.22
2023-03-29T16:40:42.622Z,3.20
2023-03-29T16:43:16.241Z,3.20
2023-03-29T16:45:43.238Z,3.70
2023-03-29T16:48:18.088Z,3.13
2023-03-29T16:50:48.715Z,2.30
2023-03-29T16:53:18.326Z,2.55
2023-03-29T16:55:48.902Z,2.58
2023-03-29T16:58:16.259Z,1.95
2023-03-29T17:00:46.383Z,2.00
2023-03-29T17:03:15.813Z,2.20
2023-03-29T17:05:50.847Z,2.17
2023-03-29T17:08:18.865Z,2.50
2023-03-29T17:10:46.061Z,2.38
2023-03-29T17:13:13.337Z,2.60
2023-03-29T17:15:40.397Z,2.28
2023-03-29T17:18:07.630Z,2.15
2023-03-29T17:20:34.889Z,2.30
2023-03-29T17:23:01.982Z,2.30
2023-03-29T17:25:29.026Z,2.60
2023-03-29T17:27:56.131Z,2.42
2023-03-29T17:30:23.300Z,2.38
2023-03-29T17:32:52.322Z,2.20
2023-03-29T17:35:19.645Z,2.47
2023-03-29T17:37:46.644Z,2.70
2023-03-29T17:40:14.197Z,2.50
2023-03-29T17:42:41.973Z,2.60
2023-03-29T17:45:10.921Z,2.40
2023-03-29T17:47:38.842Z,2.58
2023-03-29T17:50:07.650Z,2.78
2023-03-29T17:52:35.358Z,2.83
2023-03-29T17:55:03.037Z,3.22
2023-03-29T17:57:30.008Z,2.67
2023-03-29T17:59:57.010Z,2.63
2023-03-29T18:02:24.788Z,3.50
2023-03-29T18:04:52.180Z,2.72
2023-03-29T18:07:19.176Z,2.58
2023-03-29T18:09:46.413Z,2.80
2023-03-29T18:12:13.396Z,2.75
2023-03-29T18:14:40.420Z,2.22
2023-03-29T18:17:07.398Z,2.25
2023-03-29T18:19:34.568Z,2.30
2023-03-29T18:22:01.539Z,2.30
2023-03-29T18:24:28.709Z,2.88
2023-03-29T18:26:56.118Z,2.50
2023-03-29T18:29:23.945Z,2.50
2023-03-29T18:31:51.060Z,3.25
2023-03-29T18:34:18.750Z,2.47
2023-03-29T18:36:45.776Z,2.80
2023-03-29T18:39:13.656Z,2.80
2023-03-29T18:41:40.698Z,2.63
2023-03-29T18:44:07.915Z,2.30
2023-03-29T18:46:35.233Z,2.42
2023-03-29T18:49:02.842Z,1.98
2023-03-29T18:51:31.036Z,2.40
2023-03-29T18:53:58.044Z,2.72
2023-03-29T18:56:26.335Z,2.95
2023-03-29T18:58:54.700Z,2.60
2023-03-29T19:01:22.328Z,2.53
2023-03-29T19:03:49.525Z,2.88
2023-03-29T19:06:16.682Z,2.72
2023-03-29T19:08:43.814Z,2.80
2023-03-29T19:11:14.459Z,2.92
2023-03-29T19:13:42.032Z,2.55
2023-03-29T19:16:09.497Z,3.00
2023-03-29T19:18:36.852Z,2.55
2023-03-29T19:21:04.048Z,2.63
2023-03-29T19:23:31.506Z,2.70
2023-03-29T19:26:02.590Z,2.78
2023-03-29T19:28:30.496Z,2.67
2023-03-29T19:30:59.905Z,2.63
2023-03-29T19:33:28.158Z,2.70
2023-03-29T19:35:55.614Z,2.60
2023-03-29T19:38:22.863Z,3.17
2023-03-29T19:40:51.612Z,2.65
2023-03-29T19:43:20.783Z,2.60
2023-03-29T19:45:49.375Z,2.55
2023-03-29T19:50:47.882Z,2.60
2023-03-29T19:53:14.968Z,2.58
2023-03-29T19:55:44.319Z,2.70
2023-03-29T19:58:11.492Z,2.45
2023-03-29T20:00:39.059Z,2.45
2023-03-29T20:03:09.907Z,2.17
2023-03-29T20:05:38.851Z,2.33
2023-03-29T20:08:06.963Z,2.13
2023-03-29T20:10:34.893Z,2.05
2023-03-29T20:13:02.426Z,2.50
2023-03-29T20:15:29.714Z,1.92
2023-03-29T20:17:59.395Z,2.22
2023-03-29T20:20:27.666Z,2.15
2023-03-29T20:22:58.557Z,2.60
2023-03-29T20:25:25.936Z,2.28
2023-03-29T20:27:53.260Z,2.55
2023-03-29T20:30:20.642Z,2.72
2023-03-29T20:32:47.673Z,1.92
2023-03-29T20:35:14.800Z,2.08
2023-03-29T20:37:41.765Z,1.98
2023-03-29T20:40:09.323Z,2.00
2023-03-29T20:42:38.272Z,1.77
2023-03-29T20:45:06.595Z,1.70
2023-03-29T20:47:34.470Z,1.98
2023-03-29T20:50:01.669Z,1.90
2023-03-29T20:52:29.473Z,2.00
2023-03-29T20:54:56.406Z,2.33
2023-03-29T20:57:23.599Z,1.98
2023-03-29T20:59:51.027Z,1.73
2023-03-29T21:02:21.231Z,1.60
2023-03-29T21:04:53.192Z,1.95
2023-03-29T21:07:22.001Z,1.90
2023-03-29T21:09:50.430Z,1.65
2023-03-29T21:12:17.722Z,2.15
2023-03-29T21:14:44.826Z,1.98
2023-03-29T21:17:11.897Z,1.98
2023-03-29T21:19:39.505Z,1.80
2023-03-29T21:22:07.072Z,2.05
2023-03-29T21:24:36.441Z,1.75
2023-03-29T21:27:03.796Z,2.70
2023-03-29T21:29:30.823Z,2.17
2023-03-29T21:31:58.031Z,2.20
2023-03-29T21:34:25.410Z,2.38
2023-03-29T21:36:52.443Z,2.33
2023-03-29T21:39:19.412Z,2.28
2023-03-29T21:41:46.472Z,2.30
2023-03-29T21:44:13.417Z,2.08
2023-03-29T21:46:40.555Z,2.30
2023-03-29T21:49:07.770Z,2.05
2023-03-29T21:51:34.795Z,2.20
2023-03-29T21:54:01.743Z,2.00
2023-03-29T21:56:28.999Z,1.70
2023-03-29T21:58:55.993Z,2.00
2023-03-29T22:01:23.092Z,1.73
2023-03-29T22:03:50.511Z,1.85
2023-03-29T22:06:17.712Z,2.00
2023-03-29T22:08:46.852Z,1.85
2023-03-29T22:11:15.785Z,2.30
2023-03-29T22:13:43.489Z,1.98
2023-03-29T22:16:18.385Z,1.63
2023-03-29T22:18:49.133Z,1.85
2023-03-29T22:21:23.529Z,1.80
2023-03-29T22:23:55.945Z,1.50
2023-03-29T22:26:27.677Z,2.00
2023-03-29T22:28:54.973Z,1.45
2023-03-29T22:31:23.531Z,1.52
2023-03-29T22:33:50.926Z,1.80
2023-03-29T22:36:23.607Z,1.63
2023-03-29T22:38:51.687Z,1.73
2023-03-29T22:41:19.845Z,1.63
2023-03-29T22:43:46.882Z,1.77
2023-03-29T22:46:14.479Z,1.50
2023-03-29T22:48:41.704Z,1.77
2023-03-29T22:51:08.743Z,1.45
2023-03-29T22:53:35.916Z,1.60
2023-03-29T22:56:03.382Z,1.38
2023-03-29T22:58:30.648Z,1.50
2023-03-29T23:00:58.285Z,1.67
2023-03-29T23:03:26.597Z,1.50
2023-03-29T23:05:55.377Z,1.65
2023-03-29T23:08:23.721Z,1.33
2023-03-29T23:10:51.160Z,1.30
2023-03-29T23:13:28.901Z,1.48
2023-03-29T23:16:00.941Z,1.30
2023-03-29T23:18:30.331Z,1.60
2023-03-29T23:20:59.080Z,1.48
2023-03-29T23:23:27.594Z,1.70
2023-03-29T23:25:58.274Z,1.50
2023-03-29T23:28:30.480Z,1.42
2023-03-29T23:31:00.330Z,1.50
2023-03-29T23:33:33.729Z,1.35
2023-03-29T23:36:05.841Z,1.55
2023-03-29T23:38:34.316Z,1.27
2023-03-29T23:41:03.548Z,1.20
2023-03-29T23:43:37.254Z,1.25
2023-03-29T23:46:07.034Z,1.40
2023-03-29T23:48:34.440Z,1.40
2023-03-29T23:51:02.944Z,1.25
2023-03-29T23:53:31.487Z,1.85
2023-03-29T23:56:00.466Z,1.40
2023-03-29T23:58:28.631Z,1.35
